sensor_id;sensor_type;location;lat;lon;timestamp;pressure;altitude;pressure_sealevel;temperature;humidity
15674;BME280;7937;48.090;16.212;2023-03-01T00:02:52;98651.88;;;-2.66;67.45
15674;BME280;7937;48.090;16.212;2023-03-01T00:05:54;98723.75;;;-2.23;67.75
15674;BME280;7937;48.090;16.212;2023-03-01T00:08:56;98720.63;;;-2.26;67.69
15674;BME280;7937;48.090;16.212;2023-03-01T00:11:58;98703.66;;;-2.51;67.43
15674;BME280;7937;48.090;16.212;2023-03-01T00:15:00;98672.34;;;-2.61;67.81
15674;BME280;7937;48.090;16.212;2023-03-01T00:18:02;98716.06;;;-2.34;67.82
15674;BME280;7937;48.090;16.212;2023-03-01T00:21:04;98709.75;;;-2.31;67.65
15674;BME280;7937;48.090;16.212;2023-03-01T00:24:07;98712.38;;;-2.31;67.49
15674;BME280;7937;48.090;16.212;2023-03-01T00:27:09;98706.19;;;-2.30;67.73
15674;BME280;7937;48.090;16.212;2023-03-01T00:30:11;98714.25;;;-2.34;67.53
15674;BME280;7937;48.090;16.212;2023-03-01T00:33:14;98705.75;;;-2.36;67.57
15674;BME280;7937;48.090;16.212;2023-03-01T00:36:16;98704.94;;;-2.36;67.61
15674;BME280;7937;48.090;16.212;2023-03-01T00:39:18;98689.13;;;-2.44;67.57
15674;BME280;7937;48.090;16.212;2023-03-01T00:42:20;98693.94;;;-2.40;67.48
15674;BME280;7937;48.090;16.212;2023-03-01T00:45:25;98624.66;;;-2.82;67.59
15674;BME280;7937;48.090;16.212;2023-03-01T00:48:27;98653.09;;;-2.70;67.60
15674;BME280;7937;48.090;16.212;2023-03-01T00:51:30;98690.38;;;-2.39;67.87
15674;BME280;7937;48.090;16.212;2023-03-01T00:54:32;98697.38;;;-2.39;67.79
15674;BME280;7937;48.090;16.212;2023-03-01T00:57:34;98693.13;;;-2.40;67.67
15674;BME280;7937;48.090;16.212;2023-03-01T01:00:36;98690.75;;;-2.43;67.65
15674;BME280;7937;48.090;16.212;2023-03-01T01:03:38;98689.94;;;-2.44;67.76
15674;BME280;7937;48.090;16.212;2023-03-01T01:06:42;98689.78;;;-2.42;67.78
15674;BME280;7937;48.090;16.212;2023-03-01T01:09:46;98682.53;;;-2.39;67.92
15674;BME280;7937;48.090;16.212;2023-03-01T01:12:48;98682.28;;;-2.36;68.13
15674;BME280;7937;48.090;16.212;2023-03-01T01:15:50;98639.38;;;-2.62;67.82
15674;BME280;7937;48.090;16.212;2023-03-01T01:18:53;98694.91;;;-2.31;68.08
15674;BME280;7937;48.090;16.212;2023-03-01T01:21:55;98627.72;;;-2.58;68.16
15674;BME280;7937;48.090;16.212;2023-03-01T01:24:57;98627.16;;;-2.52;68.31
15674;BME280;7937;48.090;16.212;2023-03-01T01:27:59;98666.63;;;-2.06;68.52
15674;BME280;7937;48.090;16.212;2023-03-01T01:31:01;98673.63;;;-1.97;68.71
15674;BME280;7937;48.090;16.212;2023-03-01T01:34:05;98666.50;;;-1.86;68.47
15674;BME280;7937;48.090;16.212;2023-03-01T01:37:07;98661.09;;;-1.74;68.59
15674;BME280;7937;48.090;16.212;2023-03-01T01:40:10;98620.97;;;-1.83;68.65
15674;BME280;7937;48.090;16.212;2023-03-01T01:43:20;98652.16;;;-1.52;68.75
15674;BME280;7937;48.090;16.212;2023-03-01T01:46:32;98642.34;;;-1.41;68.34
15674;BME280;7937;48.090;16.212;2023-03-01T01:49:42;98642.88;;;-1.27;68.25
15674;BME280;7937;48.090;16.212;2023-03-01T01:52:48;98596.81;;;-1.48;68.32
15674;BME280;7937;48.090;16.212;2023-03-01T01:55:54;98596.38;;;-1.34;68.12
15674;BME280;7937;48.090;16.212;2023-03-01T01:59:01;98640.66;;;-0.95;67.75
15674;BME280;7937;48.090;16.212;2023-03-01T02:02:03;98580.63;;;-1.24;67.80
15674;BME280;7937;48.090;16.212;2023-03-01T02:05:11;98644.84;;;-0.84;67.68
15674;BME280;7937;48.090;16.212;2023-03-01T02:08:19;98639.72;;;-0.76;67.36
15674;BME280;7937;48.090;16.212;2023-03-01T02:11:21;98645.88;;;-0.67;67.34
15674;BME280;7937;48.090;16.212;2023-03-01T02:14:24;98621.47;;;-0.86;67.07
15674;BME280;7937;48.090;16.212;2023-03-01T02:17:26;98593.72;;;-0.96;66.93
15674;BME280;7937;48.090;16.212;2023-03-01T02:23:53;98565.88;;;-0.88;66.60
15674;BME280;7937;48.090;16.212;2023-03-01T02:26:57;98576.94;;;-0.76;66.38
15674;BME280;7937;48.090;16.212;2023-03-01T02:30:00;98621.31;;;-0.39;66.25
15674;BME280;7937;48.090;16.212;2023-03-01T02:33:03;98625.25;;;-0.35;65.70
15674;BME280;7937;48.090;16.212;2023-03-01T02:36:17;98622.34;;;-0.32;65.45
15674;BME280;7937;48.090;16.212;2023-03-01T02:39:25;98619.13;;;-0.26;65.51
15674;BME280;7937;48.090;16.212;2023-03-01T02:42:35;98625.44;;;-0.18;65.42
15674;BME280;7937;48.090;16.212;2023-03-01T02:45:48;98616.97;;;-0.12;65.52
15674;BME280;7937;48.090;16.212;2023-03-01T02:48:53;98609.66;;;-0.09;65.40
15674;BME280;7937;48.090;16.212;2023-03-01T02:55:11;98607.41;;;-0.04;66.09
15674;BME280;7937;48.090;16.212;2023-03-01T02:58:14;98608.22;;;-0.03;65.86
15674;BME280;7937;48.090;16.212;2023-03-01T03:01:18;98614.94;;;-0.01;65.63
15674;BME280;7937;48.090;16.212;2023-03-01T03:04:21;98612.19;;;0.01;65.40
15674;BME280;7937;48.090;16.212;2023-03-01T03:07:24;98607.59;;;0.03;65.49
15674;BME280;7937;48.090;16.212;2023-03-01T03:10:28;98575.22;;;-0.14;65.15
15674;BME280;7937;48.090;16.212;2023-03-01T03:13:31;98602.06;;;0.06;65.51
15674;BME280;7937;48.090;16.212;2023-03-01T03:16:33;98590.44;;;0.09;65.76
15674;BME280;7937;48.090;16.212;2023-03-01T03:19:35;98572.66;;;-0.06;65.79
15674;BME280;7937;48.090;16.212;2023-03-01T03:22:41;98563.63;;;-0.11;65.38
15674;BME280;7937;48.090;16.212;2023-03-01T03:25:43;98587.25;;;0.15;65.22
15674;BME280;7937;48.090;16.212;2023-03-01T03:28:45;98579.22;;;0.16;65.80
15674;BME280;7937;48.090;16.212;2023-03-01T03:31:48;98584.13;;;0.19;65.70
15674;BME280;7937;48.090;16.212;2023-03-01T03:34:50;98581.50;;;0.19;65.80
15674;BME280;7937;48.090;16.212;2023-03-01T03:37:52;98582.84;;;0.23;65.89
15674;BME280;7937;48.090;16.212;2023-03-01T03:41:05;98589.44;;;0.28;65.50
15674;BME280;7937;48.090;16.212;2023-03-01T03:44:08;98595.38;;;0.30;65.15
15674;BME280;7937;48.090;16.212;2023-03-01T03:47:10;98583.44;;;0.35;65.29
15674;BME280;7937;48.090;16.212;2023-03-01T03:50:15;98584.25;;;0.36;65.25
15674;BME280;7937;48.090;16.212;2023-03-01T03:53:17;98579.50;;;0.39;65.40
15674;BME280;7937;48.090;16.212;2023-03-01T03:56:20;98580.81;;;0.35;65.25
15674;BME280;7937;48.090;16.212;2023-03-01T03:59:22;98556.97;;;0.20;65.46
15674;BME280;7937;48.090;16.212;2023-03-01T04:02:24;98577.72;;;0.40;64.92
15674;BME280;7937;48.090;16.212;2023-03-01T04:05:26;98583.44;;;0.35;65.35
15674;BME280;7937;48.090;16.212;2023-03-01T04:08:29;98577.84;;;0.30;65.69
15674;BME280;7937;48.090;16.212;2023-03-01T04:11:31;98569.16;;;0.30;65.36
15674;BME280;7937;48.090;16.212;2023-03-01T04:14:33;98533.97;;;0.06;65.30
15674;BME280;7937;48.090;16.212;2023-03-01T04:17:35;98587.81;;;0.27;65.27
15674;BME280;7937;48.090;16.212;2023-03-01T04:20:37;98588.09;;;0.23;65.70
15674;BME280;7937;48.090;16.212;2023-03-01T04:23:39;98571.09;;;0.28;65.81
15674;BME280;7937;48.090;16.212;2023-03-01T04:26:42;98572.28;;;0.33;65.58
15674;BME280;7937;48.090;16.212;2023-03-01T04:29:44;98580.81;;;0.35;64.99
15674;BME280;7937;48.090;16.212;2023-03-01T04:32:46;98593.41;;;0.32;65.02
15674;BME280;7937;48.090;16.212;2023-03-01T04:35:48;98580.94;;;0.34;64.99
15674;BME280;7937;48.090;16.212;2023-03-01T04:38:51;98524.94;;;0.01;64.97
15674;BME280;7937;48.090;16.212;2023-03-01T04:41:53;98578.50;;;0.32;65.02
15674;BME280;7937;48.090;16.212;2023-03-01T04:44:55;98570.78;;;0.31;65.43
15674;BME280;7937;48.090;16.212;2023-03-01T04:47:57;98575.88;;;0.32;65.48
15674;BME280;7937;48.090;16.212;2023-03-01T04:51:00;98565.13;;;0.17;65.76
15674;BME280;7937;48.090;16.212;2023-03-01T04:54:02;98580.47;;;0.30;65.52
15674;BME280;7937;48.090;16.212;2023-03-01T04:57:04;98586.53;;;0.31;65.49
15674;BME280;7937;48.090;16.212;2023-03-01T05:00:09;98554.69;;;-0.01;65.90
15674;BME280;7937;48.090;16.212;2023-03-01T05:03:24;98586.72;;;0.11;65.94
15674;BME280;7937;48.090;16.212;2023-03-01T05:06:26;98603.69;;;0.25;65.61
15674;BME280;7937;48.090;16.212;2023-03-01T05:09:30;98608.06;;;0.24;65.71
15674;BME280;7937;48.090;16.212;2023-03-01T05:12:31;98559.72;;;-0.07;65.52
15674;BME280;7937;48.090;16.212;2023-03-01T05:15:33;98608.47;;;0.30;65.38
15674;BME280;7937;48.090;16.212;2023-03-01T05:18:39;98619.59;;;0.32;65.37
15674;BME280;7937;48.090;16.212;2023-03-01T05:21:42;98613.91;;;0.36;65.72
15674;BME280;7937;48.090;16.212;2023-03-01T05:25:03;98611.94;;;0.38;65.51
15674;BME280;7937;48.090;16.212;2023-03-01T05:28:11;98609.84;;;0.42;65.55
15674;BME280;7937;48.090;16.212;2023-03-01T05:31:13;98611.47;;;0.43;65.54
15674;BME280;7937;48.090;16.212;2023-03-01T05:34:15;98476.91;;;-0.34;65.49
15674;BME280;7937;48.090;16.212;2023-03-01T05:37:17;98570.78;;;0.31;65.43
15674;BME280;7937;48.090;16.212;2023-03-01T05:40:22;98611.59;;;0.59;65.12
15674;BME280;7937;48.090;16.212;2023-03-01T05:43:25;98605.66;;;0.57;65.27
15674;BME280;7937;48.090;16.212;2023-03-01T05:46:27;98607.31;;;0.58;65.21
15674;BME280;7937;48.090;16.212;2023-03-01T05:49:31;98584.16;;;0.45;65.29
15674;BME280;7937;48.090;16.212;2023-03-01T05:52:34;98615.88;;;0.68;64.88
15674;BME280;7937;48.090;16.212;2023-03-01T05:55:36;98613.63;;;0.73;64.54
15674;BME280;7937;48.090;16.212;2023-03-01T05:58:39;98620.06;;;0.79;64.23
15674;BME280;7937;48.090;16.212;2023-03-01T06:01:41;98623.84;;;0.85;63.91
15674;BME280;7937;48.090;16.212;2023-03-01T06:04:43;98631.25;;;0.89;63.85
15674;BME280;7937;48.090;16.212;2023-03-01T06:07:45;98626.81;;;0.90;63.34
15674;BME280;7937;48.090;16.212;2023-03-01T06:10:47;98574.38;;;0.56;63.49
15674;BME280;7937;48.090;16.212;2023-03-01T06:13:49;98626.81;;;0.90;63.58
15674;BME280;7937;48.090;16.212;2023-03-01T06:16:51;98594.25;;;0.66;63.45
15674;BME280;7937;48.090;16.212;2023-03-01T06:19:53;98619.44;;;0.93;64.04
15674;BME280;7937;48.090;16.212;2023-03-01T06:22:56;98621.25;;;0.93;64.40
15674;BME280;7937;48.090;16.212;2023-03-01T06:25:58;98616.00;;;0.93;64.77
15674;BME280;7937;48.090;16.212;2023-03-01T06:29:00;98613.38;;;0.93;64.56
15674;BME280;7937;48.090;16.212;2023-03-01T06:32:03;98582.31;;;0.72;64.76
15674;BME280;7937;48.090;16.212;2023-03-01T06:35:05;98619.31;;;1.03;64.98
15674;BME280;7937;48.090;16.212;2023-03-01T06:38:08;98614.94;;;1.03;64.69
15674;BME280;7937;48.090;16.212;2023-03-01T06:41:11;98613.31;;;1.11;63.76
15674;BME280;7937;48.090;16.212;2023-03-01T06:44:13;98615.44;;;1.15;63.10
15674;BME280;7937;48.090;16.212;2023-03-01T06:47:15;98548.06;;;0.73;63.01
15674;BME280;7937;48.090;16.212;2023-03-01T06:50:18;98625.81;;;1.25;61.65
15674;BME280;7937;48.090;16.212;2023-03-01T06:53:20;98626.00;;;1.32;61.40
15674;BME280;7937;48.090;16.212;2023-03-01T06:56:22;98630.94;;;1.35;60.60
15674;BME280;7937;48.090;16.212;2023-03-01T06:59:24;98617.47;;;1.29;60.23
15674;BME280;7937;48.090;16.212;2023-03-01T07:02:26;98615.50;;;1.32;60.14
15674;BME280;7937;48.090;16.212;2023-03-01T07:05:29;98599.72;;;1.15;59.78
15674;BME280;7937;48.090;16.212;2023-03-01T07:08:31;98622.25;;;1.34;59.87
15674;BME280;7937;48.090;16.212;2023-03-01T07:11:33;98621.13;;;1.45;60.00
15674;BME280;7937;48.090;16.212;2023-03-01T07:14:35;98618.84;;;1.50;60.57
15674;BME280;7937;48.090;16.212;2023-03-01T07:17:37;98618.00;;;1.58;60.50
15674;BME280;7937;48.090;16.212;2023-03-01T07:20:39;98612.09;;;1.55;60.26
15674;BME280;7937;48.090;16.212;2023-03-01T07:23:41;98586.66;;;1.56;60.31
15674;BME280;7937;48.090;16.212;2023-03-01T07:26:43;98619.69;;;1.91;59.84
15674;BME280;7937;48.090;16.212;2023-03-01T07:29:45;98619.88;;;1.98;59.31
15674;BME280;7937;48.090;16.212;2023-03-01T07:32:47;98622.00;;;2.11;58.69
15674;BME280;7937;48.090;16.212;2023-03-01T07:35:56;98623.16;;;2.24;58.43
15674;BME280;7937;48.090;16.212;2023-03-01T07:38:59;98624.28;;;2.30;57.93
15674;BME280;7937;48.090;16.212;2023-03-01T07:42:04;98626.94;;;2.30;57.47
15674;BME280;7937;48.090;16.212;2023-03-01T07:45:08;98622.16;;;2.33;57.60
15674;BME280;7937;48.090;16.212;2023-03-01T07:48:10;98628.56;;;2.39;57.28
15674;BME280;7937;48.090;16.212;2023-03-01T07:51:12;98631.19;;;2.39;56.95
15674;BME280;7937;48.090;16.212;2023-03-01T07:54:14;98629.88;;;2.43;56.51
15674;BME280;7937;48.090;16.212;2023-03-01T07:57:16;98567.31;;;2.06;56.47
15674;BME280;7937;48.090;16.212;2023-03-01T08:00:19;98624.75;;;2.50;56.26
15674;BME280;7937;48.090;16.212;2023-03-01T08:03:21;98613.75;;;2.46;55.93
15674;BME280;7937;48.090;16.212;2023-03-01T08:06:23;98626.72;;;2.56;56.18
15674;BME280;7937;48.090;16.212;2023-03-01T08:09:26;98627.22;;;2.59;56.09
15674;BME280;7937;48.090;16.212;2023-03-01T08:12:27;98565.13;;;2.34;56.33
15674;BME280;7937;48.090;16.212;2023-03-01T08:15:29;98617.44;;;2.84;55.64
15674;BME280;7937;48.090;16.212;2023-03-01T08:18:32;98602.78;;;2.90;55.38
15674;BME280;7937;48.090;16.212;2023-03-01T08:21:34;98617.66;;;3.14;55.03
15674;BME280;7937;48.090;16.212;2023-03-01T08:24:36;98613.69;;;3.26;55.41
15674;BME280;7937;48.090;16.212;2023-03-01T08:27:38;98621.06;;;3.31;54.95
15674;BME280;7937;48.090;16.212;2023-03-01T08:30:40;98627.78;;;3.33;55.05
15674;BME280;7937;48.090;16.212;2023-03-01T08:33:42;98626.47;;;3.38;55.07
15674;BME280;7937;48.090;16.212;2023-03-01T08:36:45;98629.22;;;3.44;55.38
15674;BME280;7937;48.090;16.212;2023-03-01T08:39:48;98619.13;;;3.56;55.01
15674;BME280;7937;48.090;16.212;2023-03-01T08:42:50;98618.66;;;3.75;53.92
15674;BME280;7937;48.090;16.212;2023-03-01T08:45:52;98613.28;;;3.92;52.99
15674;BME280;7937;48.090;16.212;2023-03-01T08:48:54;98604.59;;;4.06;51.61
15674;BME280;7937;48.090;16.212;2023-03-01T08:51:56;98553.38;;;3.85;51.39
15674;BME280;7937;48.090;16.212;2023-03-01T08:54:58;98597.91;;;4.18;51.73
15674;BME280;7937;48.090;16.212;2023-03-01T08:58:03;98600.53;;;4.18;51.34
15674;BME280;7937;48.090;16.212;2023-03-01T09:01:09;98594.63;;;4.16;51.21
15674;BME280;7937;48.090;16.212;2023-03-01T09:04:12;98595.72;;;4.22;51.33
15674;BME280;7937;48.090;16.212;2023-03-01T09:07:14;98584.31;;;4.29;50.71
15674;BME280;7937;48.090;16.212;2023-03-01T09:10:16;98580.75;;;4.37;50.63
15674;BME280;7937;48.090;16.212;2023-03-01T09:13:19;98568.03;;;4.55;50.80
15674;BME280;7937;48.090;16.212;2023-03-01T09:16:21;98547.13;;;4.54;50.12
15674;BME280;7937;48.090;16.212;2023-03-01T09:19:24;98573.94;;;4.87;49.79
15674;BME280;7937;48.090;16.212;2023-03-01T09:22:28;98575.66;;;5.09;48.98
15674;BME280;7937;48.090;16.212;2023-03-01T09:25:29;98518.59;;;4.94;47.97
15674;BME280;7937;48.090;16.212;2023-03-01T09:28:31;98556.53;;;5.43;47.78
15674;BME280;7937;48.090;16.212;2023-03-01T09:31:33;98555.78;;;5.71;47.02
15674;BME280;7937;48.090;16.212;2023-03-01T09:34:35;98557.75;;;5.84;46.97
15674;BME280;7937;48.090;16.212;2023-03-01T09:37:58;98544.44;;;5.92;46.63
15674;BME280;7937;48.090;16.212;2023-03-01T09:41:00;98517.72;;;5.87;46.00
15674;BME280;7937;48.090;16.212;2023-03-01T09:44:10;98547.31;;;5.97;45.99
15674;BME280;7937;48.090;16.212;2023-03-01T09:47:27;98542.91;;;6.04;46.53
15674;BME280;7937;48.090;16.212;2023-03-01T09:50:39;98535.91;;;6.25;46.27
15674;BME280;7937;48.090;16.212;2023-03-01T09:53:43;98539.22;;;6.27;45.71
15674;BME280;7937;48.090;16.212;2023-03-01T10:00:36;98528.63;;;6.27;44.90
15674;BME280;7937;48.090;16.212;2023-03-01T10:13:45;98513.81;;;6.32;44.95
15674;BME280;7937;48.090;16.212;2023-03-01T10:19:52;98439.81;;;5.89;44.52
15674;BME280;7937;48.090;16.212;2023-03-01T10:22:54;98502.47;;;6.45;44.03
15674;BME280;7937;48.090;16.212;2023-03-01T10:26:25;98497.34;;;6.78;43.61
15674;BME280;7937;48.090;16.212;2023-03-01T10:32:53;98441.66;;;7.33;42.77
15674;BME280;7937;48.090;16.212;2023-03-01T10:35:55;98486.56;;;7.87;41.53
15674;BME280;7937;48.090;16.212;2023-03-01T10:38:57;98483.31;;;7.59;41.86
15674;BME280;7937;48.090;16.212;2023-03-01T10:42:03;98480.66;;;7.59;42.09
15674;BME280;7937;48.090;16.212;2023-03-01T10:45:36;98485.97;;;7.85;41.50
15674;BME280;7937;48.090;16.212;2023-03-01T10:48:39;98461.88;;;7.93;40.88
15674;BME280;7937;48.090;16.212;2023-03-01T10:51:45;98468.78;;;8.08;41.05
15674;BME280;7937;48.090;16.212;2023-03-01T10:54:54;98434.72;;;7.78;40.25
15674;BME280;7937;48.090;16.212;2023-03-01T11:04:19;98446.59;;;7.89;40.67
15674;BME280;7937;48.090;16.212;2023-03-01T11:07:21;98390.28;;;7.67;40.23
15674;BME280;7937;48.090;16.212;2023-03-01T11:10:26;98434.72;;;7.91;40.19
15674;BME280;7937;48.090;16.212;2023-03-01T11:13:28;98440.84;;;7.98;40.32
15674;BME280;7937;48.090;16.212;2023-03-01T11:19:35;98430.66;;;7.89;40.96
15674;BME280;7937;48.090;16.212;2023-03-01T11:22:43;98436.97;;;7.81;40.64
15674;BME280;7937;48.090;16.212;2023-03-01T11:26:07;98437.56;;;7.96;40.54
15674;BME280;7937;48.090;16.212;2023-03-01T11:29:37;98436.56;;;7.97;40.32
15674;BME280;7937;48.090;16.212;2023-03-01T11:36:51;98428.41;;;7.92;40.85
15674;BME280;7937;48.090;16.212;2023-03-01T11:39:59;98388.22;;;7.82;40.69
15674;BME280;7937;48.090;16.212;2023-03-01T11:49:54;98441.47;;;8.00;41.39
15674;BME280;7937;48.090;16.212;2023-03-01T12:00:04;98427.34;;;8.20;41.36
15674;BME280;7937;48.090;16.212;2023-03-01T12:16:53;98451.47;;;7.85;42.89
15674;BME280;7937;48.090;16.212;2023-03-01T12:30:38;98421.09;;;7.61;43.34
15674;BME280;7937;48.090;16.212;2023-03-01T12:47:59;98404.16;;;7.69;43.44
15674;BME280;7937;48.090;16.212;2023-03-01T12:51:21;98356.44;;;7.42;43.16
15674;BME280;7937;48.090;16.212;2023-03-01T12:54:31;98386.00;;;7.79;43.70
15674;BME280;7937;48.090;16.212;2023-03-01T12:57:39;98376.56;;;8.03;43.29
15674;BME280;7937;48.090;16.212;2023-03-01T13:01:13;98367.13;;;8.07;42.94
15674;BME280;7937;48.090;16.212;2023-03-01T13:07:30;98329.88;;;7.75;43.07
15674;BME280;7937;48.090;16.212;2023-03-01T13:10:41;98368.38;;;8.05;43.43
15674;BME280;7937;48.090;16.212;2023-03-01T13:13:45;98375.31;;;8.06;44.08
15674;BME280;7937;48.090;16.212;2023-03-01T13:16:54;98370.06;;;7.86;44.00
15674;BME280;7937;48.090;16.212;2023-03-01T13:19:57;98362.69;;;7.94;43.86
15674;BME280;7937;48.090;16.212;2023-03-01T13:23:11;98355.09;;;8.11;43.55
15674;BME280;7937;48.090;16.212;2023-03-01T13:26:17;98340.59;;;8.07;43.66
15674;BME280;7937;48.090;16.212;2023-03-01T13:29:26;98341.44;;;8.01;43.87
15674;BME280;7937;48.090;16.212;2023-03-01T13:32:30;98351.09;;;7.75;44.40
15674;BME280;7937;48.090;16.212;2023-03-01T13:35:49;98345.38;;;7.85;44.73
15674;BME280;7937;48.090;16.212;2023-03-01T13:38:55;98348.84;;;7.86;44.42
15674;BME280;7937;48.090;16.212;2023-03-01T13:42:01;98334.97;;;7.84;44.52
15674;BME280;7937;48.090;16.212;2023-03-01T13:45:36;98321.50;;;7.85;44.11
15674;BME280;7937;48.090;16.212;2023-03-01T13:48:29;98346.09;;;8.19;44.04
15674;BME280;7937;48.090;16.212;2023-03-01T13:51:32;98344.59;;;8.36;44.04
15674;BME280;7937;48.090;16.212;2023-03-01T13:54:34;98339.53;;;8.28;44.04
15674;BME280;7937;48.090;16.212;2023-03-01T13:57:37;98324.19;;;8.30;44.17
15674;BME280;7937;48.090;16.212;2023-03-01T14:00:42;98329.91;;;8.27;44.32
15674;BME280;7937;48.090;16.212;2023-03-01T14:03:44;98325.72;;;8.13;44.40
15674;BME280;7937;48.090;16.212;2023-03-01T14:06:46;98329.34;;;8.12;44.47
15674;BME280;7937;48.090;16.212;2023-03-01T14:09:52;98286.16;;;7.91;44.88
15674;BME280;7937;48.090;16.212;2023-03-01T14:20:30;98316.50;;;8.15;45.27
15674;BME280;7937;48.090;16.212;2023-03-01T14:23:34;98319.59;;;8.06;45.70
15674;BME280;7937;48.090;16.212;2023-03-01T14:26:37;98315.34;;;7.98;46.33
15674;BME280;7937;48.090;16.212;2023-03-01T14:29:40;98313.34;;;7.80;46.26
15674;BME280;7937;48.090;16.212;2023-03-01T14:32:42;98313.56;;;7.72;46.70
15674;BME280;7937;48.090;16.212;2023-03-01T14:35:58;98302.56;;;7.68;46.69
15674;BME280;7937;48.090;16.212;2023-03-01T14:39:01;98311.13;;;7.70;47.14
15674;BME280;7937;48.090;16.212;2023-03-01T14:42:18;98313.97;;;7.75;46.86
15674;BME280;7937;48.090;16.212;2023-03-01T14:45:27;98312.94;;;7.83;47.17
15674;BME280;7937;48.090;16.212;2023-03-01T14:48:31;98259.16;;;7.56;47.04
15674;BME280;7937;48.090;16.212;2023-03-01T14:51:38;98289.72;;;7.65;46.99
15674;BME280;7937;48.090;16.212;2023-03-01T14:54:41;98304.97;;;7.76;47.01
15674;BME280;7937;48.090;16.212;2023-03-01T14:57:47;98301.53;;;7.76;47.27
15674;BME280;7937;48.090;16.212;2023-03-01T15:00:55;98303.97;;;7.78;47.08
15674;BME280;7937;48.090;16.212;2023-03-01T15:03:58;98264.66;;;7.48;46.69
15674;BME280;7937;48.090;16.212;2023-03-01T15:07:03;98296.44;;;7.74;46.73
15674;BME280;7937;48.090;16.212;2023-03-01T15:10:16;98256.13;;;7.46;46.99
15674;BME280;7937;48.090;16.212;2023-03-01T15:13:24;98299.72;;;7.70;47.24
15674;BME280;7937;48.090;16.212;2023-03-01T15:16:32;98269.38;;;7.46;47.18
15674;BME280;7937;48.090;16.212;2023-03-01T15:19:35;98300.75;;;7.56;47.88
15674;BME280;7937;48.090;16.212;2023-03-01T15:22:37;98305.44;;;7.54;47.94
15674;BME280;7937;48.090;16.212;2023-03-01T15:25:44;98303.84;;;7.46;47.93
15674;BME280;7937;48.090;16.212;2023-03-01T15:28:50;98301.41;;;7.44;48.15
15674;BME280;7937;48.090;16.212;2023-03-01T15:32:01;98307.69;;;7.43;48.72
15674;BME280;7937;48.090;16.212;2023-03-01T15:38:54;98310.78;;;7.40;48.80
15674;BME280;7937;48.090;16.212;2023-03-01T15:41:56;98275.72;;;7.18;49.01
15674;BME280;7937;48.090;16.212;2023-03-01T15:45:10;98309.78;;;7.35;49.34
15674;BME280;7937;48.090;16.212;2023-03-01T15:48:18;98316.91;;;7.34;49.50
15674;BME280;7937;48.090;16.212;2023-03-01T15:51:27;98310.78;;;7.27;50.11
15674;BME280;7937;48.090;16.212;2023-03-01T15:54:31;98308.31;;;7.19;50.72
15674;BME280;7937;48.090;16.212;2023-03-01T15:57:33;98297.75;;;7.12;50.42
15674;BME280;7937;48.090;16.212;2023-03-01T16:00:35;98264.34;;;6.91;50.42
15674;BME280;7937;48.090;16.212;2023-03-01T16:03:37;98301.41;;;7.18;50.86
15674;BME280;7937;48.090;16.212;2023-03-01T16:06:39;98300.00;;;7.15;50.97
15674;BME280;7937;48.090;16.212;2023-03-01T16:09:42;98285.09;;;6.94;50.60
15674;BME280;7937;48.090;16.212;2023-03-01T16:12:46;98299.56;;;6.98;50.67
15674;BME280;7937;48.090;16.212;2023-03-01T16:15:52;98275.94;;;6.84;50.74
15674;BME280;7937;48.090;16.212;2023-03-01T16:18:55;98255.16;;;6.61;50.69
15674;BME280;7937;48.090;16.212;2023-03-01T16:21:57;98299.19;;;6.95;51.68
15674;BME280;7937;48.090;16.212;2023-03-01T16:25:00;98303.44;;;6.89;51.47
15674;BME280;7937;48.090;16.212;2023-03-01T16:28:04;98305.69;;;6.86;52.18
15674;BME280;7937;48.090;16.212;2023-03-01T16:31:11;98260.22;;;6.49;52.41
15674;BME280;7937;48.090;16.212;2023-03-01T16:34:14;98306.25;;;6.75;52.69
15674;BME280;7937;48.090;16.212;2023-03-01T16:37:16;98304.63;;;6.73;52.18
15674;BME280;7937;48.090;16.212;2023-03-01T16:40:26;98252.88;;;6.38;53.64
15674;BME280;7937;48.090;16.212;2023-03-01T16:43:30;98300.16;;;6.61;53.96
15674;BME280;7937;48.090;16.212;2023-03-01T16:46:32;98258.13;;;6.25;53.99
15674;BME280;7937;48.090;16.212;2023-03-01T16:49:34;98314.59;;;6.52;54.12
15674;BME280;7937;48.090;16.212;2023-03-01T16:52:37;98309.06;;;6.46;54.79
15674;BME280;7937;48.090;16.212;2023-03-01T16:55:41;98315.56;;;6.44;55.67
15674;BME280;7937;48.090;16.212;2023-03-01T16:58:48;98307.41;;;6.39;56.12
15674;BME280;7937;48.090;16.212;2023-03-01T17:01:50;98314.13;;;6.35;55.85
15674;BME280;7937;48.090;16.212;2023-03-01T17:04:54;98311.69;;;6.33;56.51
15674;BME280;7937;48.090;16.212;2023-03-01T17:07:57;98302.50;;;6.23;57.12
15674;BME280;7937;48.090;16.212;2023-03-01T17:11:10;98313.06;;;6.16;56.93
15674;BME280;7937;48.090;16.212;2023-03-01T17:14:15;98319.97;;;6.17;57.24
15674;BME280;7937;48.090;16.212;2023-03-01T17:17:17;98321.75;;;6.10;57.83
15674;BME280;7937;48.090;16.212;2023-03-01T17:20:21;98298.50;;;5.92;58.15
15674;BME280;7937;48.090;16.212;2023-03-01T17:23:23;98330.88;;;6.01;58.28
15674;BME280;7937;48.090;16.212;2023-03-01T17:26:26;98338.56;;;5.95;58.19
15674;BME280;7937;48.090;16.212;2023-03-01T17:29:32;98332.69;;;5.93;58.25
15674;BME280;7937;48.090;16.212;2023-03-01T17:32:34;98328.56;;;5.91;58.50
15674;BME280;7937;48.090;16.212;2023-03-01T17:35:37;98338.53;;;5.89;58.82
15674;BME280;7937;48.090;16.212;2023-03-01T17:38:40;98318.31;;;5.75;58.83
15674;BME280;7937;48.090;16.212;2023-03-01T17:41:42;98322.56;;;5.76;58.84
15674;BME280;7937;48.090;16.212;2023-03-01T17:44:45;98337.84;;;5.80;59.05
15674;BME280;7937;48.090;16.212;2023-03-01T17:47:47;98332.97;;;5.77;59.10
15674;BME280;7937;48.090;16.212;2023-03-01T17:50:49;98333.34;;;5.74;59.34
15674;BME280;7937;48.090;16.212;2023-03-01T17:53:52;98330.28;;;5.70;59.53
15674;BME280;7937;48.090;16.212;2023-03-01T17:56:56;98331.69;;;5.66;59.69
15674;BME280;7937;48.090;16.212;2023-03-01T18:00:00;98333.09;;;5.62;59.77
15674;BME280;7937;48.090;16.212;2023-03-01T18:03:11;98327.13;;;5.54;60.18
15674;BME280;7937;48.090;16.212;2023-03-01T18:06:22;98331.41;;;5.55;60.27
15674;BME280;7937;48.090;16.212;2023-03-01T18:09:28;98305.66;;;5.35;60.46
15674;BME280;7937;48.090;16.212;2023-03-01T18:12:31;98322.00;;;5.46;60.85
15674;BME280;7937;48.090;16.212;2023-03-01T18:15:34;98328.41;;;5.36;61.06
15674;BME280;7937;48.090;16.212;2023-03-01T18:18:38;98331.22;;;5.28;61.35